sensor_id;sensor_type;location;lat;lon;timestamp;temperature;humidity
37642;DHT22;23486;51.956;5.888;2022-08-01T00:00:21;19.70;99.90
37642;DHT22;23486;51.956;5.888;2022-08-01T00:02:50;19.60;99.90
37642;DHT22;23486;51.956;5.888;2022-08-01T00:05:15;19.60;99.90
37642;DHT22;23486;51.956;5.888;2022-08-01T00:07:41;19.60;99.90
37642;DHT22;23486;51.956;5.888;2022-08-01T00:10:09;19.60;99.90
37642;DHT22;23486;51.956;5.888;2022-08-01T00:12:36;19.60;99.90
37642;DHT22;23486;51.956;5.888;2022-08-01T00:15:03;19.60;99.90
37642;DHT22;23486;51.956;5.888;2022-08-01T00:17:29;19.60;99.90
37642;DHT22;23486;51.956;5.888;2022-08-01T00:19:55;19.50;99.90
37642;DHT22;23486;51.956;5.888;2022-08-01T00:22:20;19.60;99.90
37642;DHT22;23486;51.956;5.888;2022-08-01T00:24:46;19.60;99.90
37642;DHT22;23486;51.956;5.888;2022-08-01T00:27:11;19.70;99.90
37642;DHT22;23486;51.956;5.888;2022-08-01T00:29:37;19.70;99.90
37642;DHT22;23486;51.956;5.888;2022-08-01T00:32:02;19.70;99.90
37642;DHT22;23486;51.956;5.888;2022-08-01T00:34:28;19.60;99.90
37642;DHT22;23486;51.956;5.888;2022-08-01T00:36:54;19.60;99.90
37642;DHT22;23486;51.956;5.888;2022-08-01T00:39:19;19.60;99.90
37642;DHT22;23486;51.956;5.888;2022-08-01T00:41:45;19.60;99.90
37642;DHT22;23486;51.956;5.888;2022-08-01T00:44:16;19.60;99.90
37642;DHT22;23486;51.956;5.888;2022-08-01T00:46:44;19.50;99.90
37642;DHT22;23486;51.956;5.888;2022-08-01T00:49:10;19.50;99.90
37642;DHT22;23486;51.956;5.888;2022-08-01T00:51:35;19.50;99.90
37642;DHT22;23486;51.956;5.888;2022-08-01T00:54:01;19.50;99.90
37642;DHT22;23486;51.956;5.888;2022-08-01T00:56:28;19.50;99.90
37642;DHT22;23486;51.956;5.888;2022-08-01T00:58:55;19.50;99.90
37642;DHT22;23486;51.956;5.888;2022-08-01T01:01:21;19.50;99.90
37642;DHT22;23486;51.956;5.888;2022-08-01T01:03:52;19.50;99.90
37642;DHT22;23486;51.956;5.888;2022-08-01T01:06:48;19.50;99.90
37642;DHT22;23486;51.956;5.888;2022-08-01T01:11:51;19.40;99.90
37642;DHT22;23486;51.956;5.888;2022-08-01T01:14:30;19.50;99.90
37642;DHT22;23486;51.956;5.888;2022-08-01T01:16:58;19.40;99.90
37642;DHT22;23486;51.956;5.888;2022-08-01T01:19:30;19.40;99.90
37642;DHT22;23486;51.956;5.888;2022-08-01T01:30:03;19.50;99.90
37642;DHT22;23486;51.956;5.888;2022-08-01T01:32:46;19.50;99.90
37642;DHT22;23486;51.956;5.888;2022-08-01T01:35:21;19.40;99.90
37642;DHT22;23486;51.956;5.888;2022-08-01T01:37:51;19.50;99.90
37642;DHT22;23486;51.956;5.888;2022-08-01T01:40:19;19.30;99.90
37642;DHT22;23486;51.956;5.888;2022-08-01T01:42:46;19.40;99.90
37642;DHT22;23486;51.956;5.888;2022-08-01T01:45:13;19.40;99.90
37642;DHT22;23486;51.956;5.888;2022-08-01T01:47:40;19.40;99.90
37642;DHT22;23486;51.956;5.888;2022-08-01T01:50:11;19.30;99.90
37642;DHT22;23486;51.956;5.888;2022-08-01T01:52:39;19.30;99.90
37642;DHT22;23486;51.956;5.888;2022-08-01T01:55:07;19.40;99.90
37642;DHT22;23486;51.956;5.888;2022-08-01T01:57:37;19.30;99.90
37642;DHT22;23486;51.956;5.888;2022-08-01T02:00:03;19.30;99.90
37642;DHT22;23486;51.956;5.888;2022-08-01T02:02:32;19.30;99.90
37642;DHT22;23486;51.956;5.888;2022-08-01T02:04:59;19.30;99.90
37642;DHT22;23486;51.956;5.888;2022-08-01T02:07:25;19.30;99.90
37642;DHT22;23486;51.956;5.888;2022-08-01T02:09:54;19.30;99.90
37642;DHT22;23486;51.956;5.888;2022-08-01T02:12:23;19.30;99.90
37642;DHT22;23486;51.956;5.888;2022-08-01T02:14:52;19.30;99.90
37642;DHT22;23486;51.956;5.888;2022-08-01T02:17:19;19.20;99.90
37642;DHT22;23486;51.956;5.888;2022-08-01T02:19:46;19.30;99.90
37642;DHT22;23486;51.956;5.888;2022-08-01T02:22:26;19.20;99.90
37642;DHT22;23486;51.956;5.888;2022-08-01T02:25:10;19.20;99.90
37642;DHT22;23486;51.956;5.888;2022-08-01T02:27:40;19.20;99.90
37642;DHT22;23486;51.956;5.888;2022-08-01T02:30:12;19.20;99.90
37642;DHT22;23486;51.956;5.888;2022-08-01T02:32:51;19.20;99.90
37642;DHT22;23486;51.956;5.888;2022-08-01T02:35:26;19.20;99.90
37642;DHT22;23486;51.956;5.888;2022-08-01T02:37:53;19.20;99.90
37642;DHT22;23486;51.956;5.888;2022-08-01T02:40:19;19.10;99.90
37642;DHT22;23486;51.956;5.888;2022-08-01T02:42:48;19.10;99.90
37642;DHT22;23486;51.956;5.888;2022-08-01T02:45:15;19.10;99.90
37642;DHT22;23486;51.956;5.888;2022-08-01T02:47:43;19.10;99.90
37642;DHT22;23486;51.956;5.888;2022-08-01T02:50:10;19.10;99.90
37642;DHT22;23486;51.956;5.888;2022-08-01T02:52:38;19.10;99.90
37642;DHT22;23486;51.956;5.888;2022-08-01T02:55:08;19.10;99.90
37642;DHT22;23486;51.956;5.888;2022-08-01T02:57:35;19.10;99.90
37642;DHT22;23486;51.956;5.888;2022-08-01T03:00:03;19.10;99.90
37642;DHT22;23486;51.956;5.888;2022-08-01T03:02:30;19.10;99.90
37642;DHT22;23486;51.956;5.888;2022-08-01T03:04:57;19.10;99.90
37642;DHT22;23486;51.956;5.888;2022-08-01T03:07:24;19.10;99.90
37642;DHT22;23486;51.956;5.888;2022-08-01T03:09:51;19.00;99.90
37642;DHT22;23486;51.956;5.888;2022-08-01T03:12:25;19.00;99.90
37642;DHT22;23486;51.956;5.888;2022-08-01T03:14:54;19.00;99.90
37642;DHT22;23486;51.956;5.888;2022-08-01T03:17:27;19.00;99.90
37642;DHT22;23486;51.956;5.888;2022-08-01T03:19:54;19.10;99.90
37642;DHT22;23486;51.956;5.888;2022-08-01T03:22:23;19.10;99.90
37642;DHT22;23486;51.956;5.888;2022-08-01T03:24:52;19.20;99.90
37642;DHT22;23486;51.956;5.888;2022-08-01T03:27:20;19.10;99.90
37642;DHT22;23486;51.956;5.888;2022-08-01T03:29:47;19.00;99.90
37642;DHT22;23486;51.956;5.888;2022-08-01T03:32:15;19.00;99.90
37642;DHT22;23486;51.956;5.888;2022-08-01T03:34:41;19.00;99.90
37642;DHT22;23486;51.956;5.888;2022-08-01T03:39:47;19.00;99.90
37642;DHT22;23486;51.956;5.888;2022-08-01T03:42:18;19.00;99.90
37642;DHT22;23486;51.956;5.888;2022-08-01T03:44:53;18.90;99.90
37642;DHT22;23486;51.956;5.888;2022-08-01T03:47:21;18.90;99.90
37642;DHT22;23486;51.956;5.888;2022-08-01T03:49:48;18.80;99.90
37642;DHT22;23486;51.956;5.888;2022-08-01T03:52:16;18.80;99.90
37642;DHT22;23486;51.956;5.888;2022-08-01T03:54:47;18.70;99.90
37642;DHT22;23486;51.956;5.888;2022-08-01T03:57:15;18.70;99.90
37642;DHT22;23486;51.956;5.888;2022-08-01T03:59:42;18.70;99.90
37642;DHT22;23486;51.956;5.888;2022-08-01T04:02:09;18.70;99.90
37642;DHT22;23486;51.956;5.888;2022-08-01T04:04:34;18.70;99.90
37642;DHT22;23486;51.956;5.888;2022-08-01T04:07:01;18.70;99.90
37642;DHT22;23486;51.956;5.888;2022-08-01T04:09:31;18.70;99.90
37642;DHT22;23486;51.956;5.888;2022-08-01T04:11:58;18.60;99.90
37642;DHT22;23486;51.956;5.888;2022-08-01T04:14:26;18.60;99.90
37642;DHT22;23486;51.956;5.888;2022-08-01T04:16:51;18.60;99.90
37642;DHT22;23486;51.956;5.888;2022-08-01T04:19:20;18.60;99.90
37642;DHT22;23486;51.956;5.888;2022-08-01T04:21:46;18.50;99.90
37642;DHT22;23486;51.956;5.888;2022-08-01T04:24:17;18.60;99.90
37642;DHT22;23486;51.956;5.888;2022-08-01T04:26:45;18.60;99.90
37642;DHT22;23486;51.956;5.888;2022-08-01T04:29:13;18.60;99.90
37642;DHT22;23486;51.956;5.888;2022-08-01T04:31:42;18.60;99.90
37642;DHT22;23486;51.956;5.888;2022-08-01T04:34:12;18.70;99.90
37642;DHT22;23486;51.956;5.888;2022-08-01T04:36:42;18.60;99.90
37642;DHT22;23486;51.956;5.888;2022-08-01T04:39:10;18.70;99.90
37642;DHT22;23486;51.956;5.888;2022-08-01T04:41:37;18.70;99.90
37642;DHT22;23486;51.956;5.888;2022-08-01T04:44:04;18.80;99.90
37642;DHT22;23486;51.956;5.888;2022-08-01T04:46:29;18.90;99.90
37642;DHT22;23486;51.956;5.888;2022-08-01T04:48:57;18.90;99.90
37642;DHT22;23486;51.956;5.888;2022-08-01T04:51:23;18.90;99.90
37642;DHT22;23486;51.956;5.888;2022-08-01T04:53:50;18.90;99.90
37642;DHT22;23486;51.956;5.888;2022-08-01T04:56:17;18.90;99.90
37642;DHT22;23486;51.956;5.888;2022-08-01T04:58:43;18.90;99.90
37642;DHT22;23486;51.956;5.888;2022-08-01T05:01:13;18.90;99.90
37642;DHT22;23486;51.956;5.888;2022-08-01T05:03:39;18.90;99.90
37642;DHT22;23486;51.956;5.888;2022-08-01T05:06:05;18.90;99.90
37642;DHT22;23486;51.956;5.888;2022-08-01T05:08:40;19.00;99.90
37642;DHT22;23486;51.956;5.888;2022-08-01T05:11:06;19.00;99.90
37642;DHT22;23486;51.956;5.888;2022-08-01T05:13:32;19.00;99.90
37642;DHT22;23486;51.956;5.888;2022-08-01T05:15:57;19.00;99.90
37642;DHT22;23486;51.956;5.888;2022-08-01T05:18:23;19.10;99.90
37642;DHT22;23486;51.956;5.888;2022-08-01T05:20:48;19.00;99.90
37642;DHT22;23486;51.956;5.888;2022-08-01T05:23:17;19.10;99.90
37642;DHT22;23486;51.956;5.888;2022-08-01T05:25:43;19.10;99.90
37642;DHT22;23486;51.956;5.888;2022-08-01T05:28:08;19.10;99.90
37642;DHT22;23486;51.956;5.888;2022-08-01T05:30:34;19.20;99.90
37642;DHT22;23486;51.956;5.888;2022-08-01T05:32:59;19.20;99.90
37642;DHT22;23486;51.956;5.888;2022-08-01T05:35:25;19.20;99.90
37642;DHT22;23486;51.956;5.888;2022-08-01T05:37:51;19.20;99.90
37642;DHT22;23486;51.956;5.888;2022-08-01T05:40:16;19.20;99.90
37642;DHT22;23486;51.956;5.888;2022-08-01T05:42:42;19.20;99.90
37642;DHT22;23486;51.956;5.888;2022-08-01T05:45:08;19.20;99.90
37642;DHT22;23486;51.956;5.888;2022-08-01T05:47:33;19.30;99.90
37642;DHT22;23486;51.956;5.888;2022-08-01T05:49:59;19.30;99.90
37642;DHT22;23486;51.956;5.888;2022-08-01T05:52:25;19.40;99.90
37642;DHT22;23486;51.956;5.888;2022-08-01T05:54:50;19.40;99.90
37642;DHT22;23486;51.956;5.888;2022-08-01T05:57:16;19.50;99.90
37642;DHT22;23486;51.956;5.888;2022-08-01T05:59:41;19.50;99.90
37642;DHT22;23486;51.956;5.888;2022-08-01T06:02:07;19.50;99.90
37642;DHT22;23486;51.956;5.888;2022-08-01T06:04:32;19.50;99.90
37642;DHT22;23486;51.956;5.888;2022-08-01T06:06:58;19.40;99.90
37642;DHT22;23486;51.956;5.888;2022-08-01T06:09:23;19.40;99.90
37642;DHT22;23486;51.956;5.888;2022-08-01T06:11:49;19.40;99.90
37642;DHT22;23486;51.956;5.888;2022-08-01T06:14:14;19.40;99.90
37642;DHT22;23486;51.956;5.888;2022-08-01T06:16:40;19.40;99.90
37642;DHT22;23486;51.956;5.888;2022-08-01T06:19:08;19.40;99.90
37642;DHT22;23486;51.956;5.888;2022-08-01T06:21:34;19.40;99.90
37642;DHT22;23486;51.956;5.888;2022-08-01T06:24:00;19.40;99.90
37642;DHT22;23486;51.956;5.888;2022-08-01T06:26:25;19.50;99.90
37642;DHT22;23486;51.956;5.888;2022-08-01T06:28:51;19.50;99.90
37642;DHT22;23486;51.956;5.888;2022-08-01T06:31:16;19.50;99.90
37642;DHT22;23486;51.956;5.888;2022-08-01T06:33:42;19.50;99.90
37642;DHT22;23486;51.956;5.888;2022-08-01T06:36:08;19.50;99.90
37642;DHT22;23486;51.956;5.888;2022-08-01T06:38:34;19.50;99.90
37642;DHT22;23486;51.956;5.888;2022-08-01T06:41:00;19.60;99.90
37642;DHT22;23486;51.956;5.888;2022-08-01T06:43:26;19.60;99.90
37642;DHT22;23486;51.956;5.888;2022-08-01T06:45:51;19.60;99.90
37642;DHT22;23486;51.956;5.888;2022-08-01T06:48:17;19.70;99.90
37642;DHT22;23486;51.956;5.888;2022-08-01T06:50:43;19.70;99.90
37642;DHT22;23486;51.956;5.888;2022-08-01T06:53:09;19.70;99.90
37642;DHT22;23486;51.956;5.888;2022-08-01T06:55:35;19.70;99.90
37642;DHT22;23486;51.956;5.888;2022-08-01T06:58:01;19.70;99.90
37642;DHT22;23486;51.956;5.888;2022-08-01T07:00:27;19.70;99.90
37642;DHT22;23486;51.956;5.888;2022-08-01T07:02:55;19.70;99.90
37642;DHT22;23486;51.956;5.888;2022-08-01T07:05:22;19.70;99.90
37642;DHT22;23486;51.956;5.888;2022-08-01T07:07:50;19.70;99.90
37642;DHT22;23486;51.956;5.888;2022-08-01T07:10:17;19.70;99.90
37642;DHT22;23486;51.956;5.888;2022-08-01T07:12:48;19.70;99.90
37642;DHT22;23486;51.956;5.888;2022-08-01T07:15:14;19.70;99.90
37642;DHT22;23486;51.956;5.888;2022-08-01T07:17:42;19.70;99.90
37642;DHT22;23486;51.956;5.888;2022-08-01T07:20:09;19.80;99.90
37642;DHT22;23486;51.956;5.888;2022-08-01T07:22:36;19.80;99.90
37642;DHT22;23486;51.956;5.888;2022-08-01T07:25:11;20.00;99.90
37642;DHT22;23486;51.956;5.888;2022-08-01T07:27:36;20.00;99.90
37642;DHT22;23486;51.956;5.888;2022-08-01T07:30:04;20.10;99.90
37642;DHT22;23486;51.956;5.888;2022-08-01T07:32:30;20.10;99.90
37642;DHT22;23486;51.956;5.888;2022-08-01T07:34:56;20.30;99.90
37642;DHT22;23486;51.956;5.888;2022-08-01T07:37:22;20.30;99.90
37642;DHT22;23486;51.956;5.888;2022-08-01T07:39:48;20.30;99.90
37642;DHT22;23486;51.956;5.888;2022-08-01T07:42:14;20.30;99.90
37642;DHT22;23486;51.956;5.888;2022-08-01T07:44:40;20.20;99.90
37642;DHT22;23486;51.956;5.888;2022-08-01T07:47:06;20.10;99.90
37642;DHT22;23486;51.956;5.888;2022-08-01T07:49:31;20.10;99.90
37642;DHT22;23486;51.956;5.888;2022-08-01T07:51:57;20.00;99.90
37642;DHT22;23486;51.956;5.888;2022-08-01T07:54:23;20.00;99.90
37642;DHT22;23486;51.956;5.888;2022-08-01T07:56:53;20.00;99.90
37642;DHT22;23486;51.956;5.888;2022-08-01T07:59:19;20.00;99.90
37642;DHT22;23486;51.956;5.888;2022-08-01T08:01:49;19.90;99.90
37642;DHT22;23486;51.956;5.888;2022-08-01T08:04:18;19.70;99.90
37642;DHT22;23486;51.956;5.888;2022-08-01T08:06:44;19.60;99.90
37642;DHT22;23486;51.956;5.888;2022-08-01T08:09:13;19.70;99.90
37642;DHT22;23486;51.956;5.888;2022-08-01T08:11:45;19.70;99.90
37642;DHT22;23486;51.956;5.888;2022-08-01T08:14:11;19.80;99.90
37642;DHT22;23486;51.956;5.888;2022-08-01T08:16:36;19.80;99.90
37642;DHT22;23486;51.956;5.888;2022-08-01T08:19:02;19.80;99.90
37642;DHT22;23486;51.956;5.888;2022-08-01T08:21:28;19.80;99.90
37642;DHT22;23486;51.956;5.888;2022-08-01T08:23:55;19.80;99.90
37642;DHT22;23486;51.956;5.888;2022-08-01T08:26:39;19.90;99.90
37642;DHT22;23486;51.956;5.888;2022-08-01T08:29:05;19.90;99.90
37642;DHT22;23486;51.956;5.888;2022-08-01T08:31:30;19.90;99.90
37642;DHT22;23486;51.956;5.888;2022-08-01T08:33:56;19.90;99.90
37642;DHT22;23486;51.956;5.888;2022-08-01T08:36:22;20.00;99.90
37642;DHT22;23486;51.956;5.888;2022-08-01T08:38:47;20.00;99.90
37642;DHT22;23486;51.956;5.888;2022-08-01T08:41:14;20.10;99.90
37642;DHT22;23486;51.956;5.888;2022-08-01T08:43:39;20.10;99.90
37642;DHT22;23486;51.956;5.888;2022-08-01T08:46:07;20.20;99.90
37642;DHT22;23486;51.956;5.888;2022-08-01T08:48:34;20.20;99.90
37642;DHT22;23486;51.956;5.888;2022-08-01T08:51:00;20.40;99.90
37642;DHT22;23486;51.956;5.888;2022-08-01T08:53:27;20.50;99.90
37642;DHT22;23486;51.956;5.888;2022-08-01T08:55:53;20.70;99.90
37642;DHT22;23486;51.956;5.888;2022-08-01T08:58:20;20.80;99.90
37642;DHT22;23486;51.956;5.888;2022-08-01T09:00:46;21.00;99.90
37642;DHT22;23486;51.956;5.888;2022-08-01T09:03:12;21.20;99.90
37642;DHT22;23486;51.956;5.888;2022-08-01T09:05:37;21.20;99.90
37642;DHT22;23486;51.956;5.888;2022-08-01T09:08:07;21.10;99.90
37642;DHT22;23486;51.956;5.888;2022-08-01T09:10:33;21.10;99.90
37642;DHT22;23486;51.956;5.888;2022-08-01T09:13:09;21.10;99.90
37642;DHT22;23486;51.956;5.888;2022-08-01T09:15:49;21.10;99.90
37642;DHT22;23486;51.956;5.888;2022-08-01T09:18:34;20.90;99.90
37642;DHT22;23486;51.956;5.888;2022-08-01T09:21:16;20.70;99.90
37642;DHT22;23486;51.956;5.888;2022-08-01T09:23:53;20.50;99.90
37642;DHT22;23486;51.956;5.888;2022-08-01T09:26:21;20.10;99.90
37642;DHT22;23486;51.956;5.888;2022-08-01T09:28:47;19.80;99.90
37642;DHT22;23486;51.956;5.888;2022-08-01T09:31:16;19.60;99.90
37642;DHT22;23486;51.956;5.888;2022-08-01T09:33:59;19.40;99.90
37642;DHT22;23486;51.956;5.888;2022-08-01T09:36:42;19.20;99.90
37642;DHT22;23486;51.956;5.888;2022-08-01T09:39:13;19.00;99.90
37642;DHT22;23486;51.956;5.888;2022-08-01T09:41:40;18.90;99.90
37642;DHT22;23486;51.956;5.888;2022-08-01T09:44:06;18.70;99.90
37642;DHT22;23486;51.956;5.888;2022-08-01T09:46:34;18.60;99.90
37642;DHT22;23486;51.956;5.888;2022-08-01T09:49:04;18.50;99.90
37642;DHT22;23486;51.956;5.888;2022-08-01T09:51:37;18.50;99.90
37642;DHT22;23486;51.956;5.888;2022-08-01T09:54:05;18.40;99.90
37642;DHT22;23486;51.956;5.888;2022-08-01T09:56:42;18.50;99.90
37642;DHT22;23486;51.956;5.888;2022-08-01T09:59:09;18.60;99.90
37642;DHT22;23486;51.956;5.888;2022-08-01T10:01:49;18.70;99.90
37642;DHT22;23486;51.956;5.888;2022-08-01T10:04:19;18.70;99.90
37642;DHT22;23486;51.956;5.888;2022-08-01T10:06:49;18.60;99.90
37642;DHT22;23486;51.956;5.888;2022-08-01T10:09:28;18.60;99.90
37642;DHT22;23486;51.956;5.888;2022-08-01T10:11:55;18.60;99.90
37642;DHT22;23486;51.956;5.888;2022-08-01T10:14:23;18.60;99.90
37642;DHT22;23486;51.956;5.888;2022-08-01T10:16:50;18.70;99.90
37642;DHT22;23486;51.956;5.888;2022-08-01T10:19:16;18.80;99.90
37642;DHT22;23486;51.956;5.888;2022-08-01T10:21:44;18.90;99.90
37642;DHT22;23486;51.956;5.888;2022-08-01T10:24:12;18.90;99.90
37642;DHT22;23486;51.956;5.888;2022-08-01T10:26:40;18.90;99.90
37642;DHT22;23486;51.956;5.888;2022-08-01T10:29:09;19.00;99.90
37642;DHT22;23486;51.956;5.888;2022-08-01T10:31:37;19.00;99.90
37642;DHT22;23486;51.956;5.888;2022-08-01T10:34:03;19.20;99.90
37642;DHT22;23486;51.956;5.888;2022-08-01T10:36:29;19.30;99.90
37642;DHT22;23486;51.956;5.888;2022-08-01T10:38:59;19.50;99.90
37642;DHT22;23486;51.956;5.888;2022-08-01T10:41:26;19.50;99.90
37642;DHT22;23486;51.956;5.888;2022-08-01T10:43:52;19.70;99.90
37642;DHT22;23486;51.956;5.888;2022-08-01T10:46:19;19.80;99.90
37642;DHT22;23486;51.956;5.888;2022-08-01T10:49:00;19.90;99.90
37642;DHT22;23486;51.956;5.888;2022-08-01T10:51:28;20.20;99.90
37642;DHT22;23486;51.956;5.888;2022-08-01T10:53:54;20.30;99.90
37642;DHT22;23486;51.956;5.888;2022-08-01T10:56:21;20.30;99.90
37642;DHT22;23486;51.956;5.888;2022-08-01T10:58:48;20.30;99.90
37642;DHT22;23486;51.956;5.888;2022-08-01T11:01:25;20.20;99.90
37642;DHT22;23486;51.956;5.888;2022-08-01T11:12:09;20.40;99.90
37642;DHT22;23486;51.956;5.888;2022-08-01T11:17:43;20.70;99.90
37642;DHT22;23486;51.956;5.888;2022-08-01T11:30:45;21.00;99.90
37642;DHT22;23486;51.956;5.888;2022-08-01T11:33:13;21.10;99.90
37642;DHT22;23486;51.956;5.888;2022-08-01T11:38:45;21.00;99.90
37642;DHT22;23486;51.956;5.888;2022-08-01T11:49:28;21.50;99.90
37642;DHT22;23486;51.956;5.888;2022-08-01T11:52:07;21.70;99.90
37642;DHT22;23486;51.956;5.888;2022-08-01T11:54:36;21.70;99.90
37642;DHT22;23486;51.956;5.888;2022-08-01T11:57:07;21.70;99.90
37642;DHT22;23486;51.956;5.888;2022-08-01T11:59:42;21.60;99.90
37642;DHT22;23486;51.956;5.888;2022-08-01T12:07:19;21.60;99.90
37642;DHT22;23486;51.956;5.888;2022-08-01T12:09:46;21.60;99.90
37642;DHT22;23486;51.956;5.888;2022-08-01T12:12:15;21.70;99.90
37642;DHT22;23486;51.956;5.888;2022-08-01T12:14:42;21.80;99.90
37642;DHT22;23486;51.956;5.888;2022-08-01T12:17:08;21.70;99.90
37642;DHT22;23486;51.956;5.888;2022-08-01T12:19:33;21.80;99.90
37642;DHT22;23486;51.956;5.888;2022-08-01T12:22:06;21.80;99.90
37642;DHT22;23486;51.956;5.888;2022-08-01T12:24:33;21.80;99.90
37642;DHT22;23486;51.956;5.888;2022-08-01T12:26:59;21.80;99.90
37642;DHT22;23486;51.956;5.888;2022-08-01T12:29:39;22.00;99.90
37642;DHT22;23486;51.956;5.888;2022-08-01T12:32:29;22.10;99.90
37642;DHT22;23486;51.956;5.888;2022-08-01T12:35:00;22.30;99.90
37642;DHT22;23486;51.956;5.888;2022-08-01T12:37:26;22.20;99.90
37642;DHT22;23486;51.956;5.888;2022-08-01T12:39:53;22.10;99.90
37642;DHT22;23486;51.956;5.888;2022-08-01T12:42:18;22.20;99.90
37642;DHT22;23486;51.956;5.888;2022-08-01T12:44:47;22.20;99.90
37642;DHT22;23486;51.956;5.888;2022-08-01T12:47:14;22.20;99.90
37642;DHT22;23486;51.956;5.888;2022-08-01T12:49:42;22.30;99.90
37642;DHT22;23486;51.956;5.888;2022-08-01T12:52:09;22.30;99.90
37642;DHT22;23486;51.956;5.888;2022-08-01T12:55:03;22.20;99.90
37642;DHT22;23486;51.956;5.888;2022-08-01T12:57:30;22.10;99.90
37642;DHT22;23486;51.956;5.888;2022-08-01T13:00:12;21.90;99.90
37642;DHT22;23486;51.956;5.888;2022-08-01T13:02:39;21.70;99.90
37642;DHT22;23486;51.956;5.888;2022-08-01T13:05:06;21.60;99.90
37642;DHT22;23486;51.956;5.888;2022-08-01T13:07:51;21.50;99.90
37642;DHT22;23486;51.956;5.888;2022-08-01T13:10:28;21.50;99.90
37642;DHT22;23486;51.956;5.888;2022-08-01T13:12:57;21.60;99.90
37642;DHT22;23486;51.956;5.888;2022-08-01T13:15:33;21.70;99.90
37642;DHT22;23486;51.956;5.888;2022-08-01T13:18:21;21.80;99.90
37642;DHT22;23486;51.956;5.888;2022-08-01T13:20:46;21.80;99.90
37642;DHT22;23486;51.956;5.888;2022-08-01T13:23:17;22.00;99.90
37642;DHT22;23486;51.956;5.888;2022-08-01T13:25:51;22.10;99.90
37642;DHT22;23486;51.956;5.888;2022-08-01T13:28:25;22.50;99.90
37642;DHT22;23486;51.956;5.888;2022-08-01T13:31:05;22.90;99.90
37642;DHT22;23486;51.956;5.888;2022-08-01T13:33:59;23.10;99.90
37642;DHT22;23486;51.956;5.888;2022-08-01T13:36:25;23.20;99.90
37642;DHT22;23486;51.956;5.888;2022-08-01T13:38:54;23.40;99.90
37642;DHT22;23486;51.956;5.888;2022-08-01T13:41:38;23.50;99.90
37642;DHT22;23486;51.956;5.888;2022-08-01T13:44:03;23.50;99.90
37642;DHT22;23486;51.956;5.888;2022-08-01T13:46:30;23.50;99.90
37642;DHT22;23486;51.956;5.888;2022-08-01T13:48:56;23.50;99.90
37642;DHT22;23486;51.956;5.888;2022-08-01T13:51:21;23.70;99.90
37642;DHT22;23486;51.956;5.888;2022-08-01T13:53:50;23.80;99.90
37642;DHT22;23486;51.956;5.888;2022-08-01T13:56:16;23.80;99.90
37642;DHT22;23486;51.956;5.888;2022-08-01T13:58:43;23.80;99.90
37642;DHT22;23486;51.956;5.888;2022-08-01T14:01:08;23.60;99.90
37642;DHT22;23486;51.956;5.888;2022-08-01T14:03:36;23.50;99.90
37642;DHT22;23486;51.956;5.888;2022-08-01T14:06:02;23.40;99.90
37642;DHT22;23486;51.956;5.888;2022-08-01T14:08:28;23.30;99.90
37642;DHT22;23486;51.956;5.888;2022-08-01T14:10:54;23.30;99.90
37642;DHT22;23486;51.956;5.888;2022-08-01T14:13:28;23.40;99.90
37642;DHT22;23486;51.956;5.888;2022-08-01T14:16:01;23.40;99.90
37642;DHT22;23486;51.956;5.888;2022-08-01T14:18:27;23.50;99.90
37642;DHT22;23486;51.956;5.888;2022-08-01T14:20:52;23.50;99.90
37642;DHT22;23486;51.956;5.888;2022-08-01T14:23:18;23.60;99.90
37642;DHT22;23486;51.956;5.888;2022-08-01T14:25:43;23.60;99.90
37642;DHT22;23486;51.956;5.888;2022-08-01T14:28:09;23.50;99.90
37642;DHT22;23486;51.956;5.888;2022-08-01T14:30:36;23.50;99.90
37642;DHT22;23486;51.956;5.888;2022-08-01T14:33:02;23.70;99.90
37642;DHT22;23486;51.956;5.888;2022-08-01T14:35:28;23.80;99.90
37642;DHT22;23486;51.956;5.888;2022-08-01T14:37:53;24.10;99.90
37642;DHT22;23486;51.956;5.888;2022-08-01T14:40:19;24.50;99.90
37642;DHT22;23486;51.956;5.888;2022-08-01T14:42:45;24.80;99.90
37642;DHT22;23486;51.956;5.888;2022-08-01T14:45:12;24.90;99.90
37642;DHT22;23486;51.956;5.888;2022-08-01T14:47:39;25.00;99.90
37642;DHT22;23486;51.956;5.888;2022-08-01T14:50:10;25.20;99.70
37642;DHT22;23486;51.956;5.888;2022-08-01T14:52:38;25.20;99.90
37642;DHT22;23486;51.956;5.888;2022-08-01T14:55:05;25.30;99.40
37642;DHT22;23486;51.956;5.888;2022-08-01T14:57:31;25.40;98.90
37642;DHT22;23486;51.956;5.888;2022-08-01T14:59:57;25.50;99.80
37642;DHT22;23486;51.956;5.888;2022-08-01T15:02:23;25.50;99.90
37642;DHT22;23486;51.956;5.888;2022-08-01T15:04:49;25.70;99.90
37642;DHT22;23486;51.956;5.888;2022-08-01T15:07:16;25.80;99.90
37642;DHT22;23486;51.956;5.888;2022-08-01T15:09:42;25.80;99.90
37642;DHT22;23486;51.956;5.888;2022-08-01T15:12:08;25.80;99.90
37642;DHT22;23486;51.956;5.888;2022-08-01T15:14:34;26.00;99.90
37642;DHT22;23486;51.956;5.888;2022-08-01T15:17:22;26.10;99.90
37642;DHT22;23486;51.956;5.888;2022-08-01T15:19:52;26.20;99.30
37642;DHT22;23486;51.956;5.888;2022-08-01T15:22:18;26.10;93.60
37642;DHT22;23486;51.956;5.888;2022-08-01T15:24:50;26.10;94.00
37642;DHT22;23486;51.956;5.888;2022-08-01T15:27:16;26.10;92.10
37642;DHT22;23486;51.956;5.888;2022-08-01T15:29:41;26.20;92.20
37642;DHT22;23486;51.956;5.888;2022-08-01T15:32:08;26.20;91.50
37642;DHT22;23486;51.956;5.888;2022-08-01T15:34:34;26.40;92.30
37642;DHT22;23486;51.956;5.888;2022-08-01T15:37:00;26.60;89.90
37642;DHT22;23486;51.956;5.888;2022-08-01T15:39:26;26.60;91.10
37642;DHT22;23486;51.956;5.888;2022-08-01T15:41:52;26.60;89.50
37642;DHT22;23486;51.956;5.888;2022-08-01T15:44:17;26.60;89.10
37642;DHT22;23486;51.956;5.888;2022-08-01T15:46:50;26.50;81.40
37642;DHT22;23486;51.956;5.888;2022-08-01T15:49:17;26.20;78.70
37642;DHT22;23486;51.956;5.888;2022-08-01T15:51:46;25.90;79.80
37642;DHT22;23486;51.956;5.888;2022-08-01T15:54:12;25.70;82.40
37642;DHT22;23486;51.956;5.888;2022-08-01T15:56:37;25.50;82.30
37642;DHT22;23486;51.956;5.888;2022-08-01T15:59:04;25.40;82.50
37642;DHT22;23486;51.956;5.888;2022-08-01T16:01:29;25.20;75.80
37642;DHT22;23486;51.956;5.888;2022-08-01T16:03:56;25.00;76.70
37642;DHT22;23486;51.956;5.888;2022-08-01T16:06:22;24.80;75.40
37642;DHT22;23486;51.956;5.888;2022-08-01T16:08:51;24.70;74.60
37642;DHT22;23486;51.956;5.888;2022-08-01T16:11:18;24.60;76.00
37642;DHT22;23486;51.956;5.888;2022-08-01T16:13:44;24.60;75.70
37642;DHT22;23486;51.956;5.888;2022-08-01T16:16:11;24.50;75.70
37642;DHT22;23486;51.956;5.888;2022-08-01T16:18:37;24.60;76.40
37642;DHT22;23486;51.956;5.888;2022-08-01T16:21:03;24.50;75.00
37642;DHT22;23486;51.956;5.888;2022-08-01T16:23:30;24.50;75.50
37642;DHT22;23486;51.956;5.888;2022-08-01T16:25:56;24.50;74.90
37642;DHT22;23486;51.956;5.888;2022-08-01T16:28:21;24.40;74.30